This is the latest recevied weather packets stored in our database for station/object SQ9PDE-13. If no packets are shown the sender has not sent any weather packets the latest 1 day(s).
| Time | Temp. | Humidity | Pressure | Rain* | Wind** | Luminosity | Snow |
|---|---|---|---|---|---|---|---|
| 1778053630 | 23.33° C | 58% | 1006.1 hPa | - | - | - | - |
| 1778053029 | 22.78° C | 59% | 1006 hPa | - | - | - | - |
| 1778052428 | 22.78° C | 59% | 1005.9 hPa | - | - | - | - |
| 1778051827 | 21.11° C | 62% | 1006.3 hPa | - | - | - | - |
| 1778051226 | 19.44° C | 61% | 1005.6 hPa | - | - | - | - |
| 1778050625 | 21.11° C | 63% | 1006.5 hPa | - | - | - | - |
| 1778050024 | 20° C | 65% | 1006.6 hPa | - | - | - | - |
| 1778049763 | 20.56° C | 64% | 1006.4 hPa | - | - | - | - |
| 1778048221 | 20.56° C | 63% | 1006.2 hPa | - | - | - | - |
| 1778047920 | 20.56° C | 54% | 1004.8 hPa | - | - | - | - |
| 1778047620 | 20° C | 63% | 1006.2 hPa | - | - | - | - |
| 1778047319 | 20° C | 64% | 1006.2 hPa | - | - | - | - |
| 1778046718 | 18.89° C | 67% | 1006.3 hPa | - | - | - | - |
| 1778046117 | 17.78° C | 69% | 1005.2 hPa | - | - | - | - |
| 1778045816 | 17.78° C | 64% | 1005.3 hPa | - | - | - | - |
| 1778045516 | 17.22° C | 67% | 1005.2 hPa | - | - | - | - |
| 1778044915 | 16.11° C | 65% | 1005.3 hPa | - | - | - | - |
| 1778044614 | 16.67° C | 64% | 1005.2 hPa | - | - | - | - |
| 1778044314 | 16.67° C | 64% | 1005.2 hPa | - | - | - | - |
| 1778044013 | 16.67° C | 64% | 1005.6 hPa | - | - | - | - |
| 1778043713 | 17.22° C | 64% | 1006.3 hPa | - | - | - | - |
| 1778043412 | 17.78° C | 69% | 1006.3 hPa | - | - | - | - |
| 1778042842 | 17.22° C | 71% | 1005.9 hPa | - | - | - | - |
| 1778042811 | 17.22° C | 71% | 1005.9 hPa | - | - | - | - |
| 1778042510 | 16.11° C | 70% | 1005.6 hPa | - | - | - | - |
* Rain since midnight (hover to see other rain measurements)
** Current wind speed in m/s (hover to see current wind gust speed)